Aérodrome :
LOGIN :

S'inscrire | Disclaimer

   EN    FR    IT 

 










Légende :    VFR   VFR Marginal   IFR   IFR Intensif   IFR Très Intensif
Visi : 
Plafond : 
>= 8 km
>= 3000ft
5 à 8 km
1000 à 3000 ft
1500m à 5 km
500 à 1000 ft
800 à 1500m
200 à 500 ft
< 800m
< 200 ft
Symboles :   Orages  Brouillard  Fortes neiges  Fortes précipitations  Vent > 20 kt
SIGMETs :   Divers  Orages  Givrage  Turbulence  Onde Orograph.  Cendres Volcan.







- Altitude de l'aérodrome : 289 ft
- Code IATA : ZAD


LDZD - Zadar

DERNIER METAR :
  • 240300Z 04022KT CAVOK 02/M13 Q1033

METARs EXPIRÉS :
  • 240230Z 05026KT CAVOK 02/M13 Q1032
  • 240200Z 04023KT CAVOK 01/M12 Q1033
  • 240130Z 03023KT 360V070 CAVOK 02/M13 Q1034
  • 240100Z 04025KT CAVOK 01/M12 Q1033
  • 240030Z 03023G33KT 350V060 CAVOK 02/M13 Q1033

TAF TAF LDZD
Valide du 24 à 00h jusqu'au 25 à 00h UTC


232325Z 2400/2500 03028G40KT CAVOK TX08/2413Z TN00/2406Z
TEMPO 2400/2412 06015KT
PROB40
TEMPO 2404/2500 VRB10KT
PROB30
TEMPO 2406/2500 VRB15G25KT
BECMG 2410/2412 34012KT
PROB40
TEMPO 2412/2500 34015G30KT
Pas de NOTAMs connus pour ce terrain.
2 SIGMETs publiés pour la FIR Zagreb (LDZO) :
 
Turbulence forte
LDZO SIGMET 2 VALID 240200/240600 LDZA
LDZO ZAGREB FIR SEV TURB FCST WI N4224 E01831 - N4128 E01819 - N4220 E01609 - N4430 E01313 - N4534 E01310 - N4540 E01435 - N4526 E01509 - N4224 E01831 SFC/FL100 STNR WKN=
Onde orographique forte
LDZO SIGMET 1 VALID 240200/240600 LDZA
LDZO ZAGREB FIR SEV MTW FCST SW OF LINE N4532 E01458 - N4458 E01545 FL100/380 STNR WKN=



MET'MAP, la Météo Aéronautique d'un coup d'oeil ! - Copyright ORBIFLY Décembre 2007 - Disclaimer

ORBIFLY MET'MAP TEAM :

Programmation & Développement : Alexandra Zaïnal
Conception & Développement : Baudouin d'Aumeries
Co-Programmation & Développement : Marc-Olivier Méhu
Soutien technique & logistique : Manuel Goepfert

Contact : metmap@orbifly.com




SOURCES & CREDITS :

   NOAA